.
WxDataArchive / Data Records for 2012-02-17
2012-02-16 February 2012 2012-02-18

Data Records for Friday, 17 February 2012

Time	Temp	Chill	HIndex	Humid	Dewpt	 Wind 	HiWind	WindDir	Rain 	Barom 
-----	----	-----	------	-----	-----	------	------	-------	-----	----- 
00:00	29.1	29.1	29.1	91	26.8	0	0	---	0.00	30.137 
00:05	29.1	29.1	29.1	91	26.8	0	0	---	0.00	30.137 
00:10	29.0	29.0	29.0	91	26.7	0	0	---	0.00	30.137 
00:15	28.8	28.8	28.8	91	26.5	0	0	---	0.00	30.132 
00:20	28.8	28.8	28.8	91	26.5	0	0	---	0.00	30.132 
00:25	28.7	28.7	28.7	91	26.4	0	0	---	0.00	30.132 
00:30	28.7	28.7	28.7	91	26.4	0	0	---	0.00	30.131 
00:35	28.7	28.7	28.7	91	26.4	0	0	---	0.00	30.131 
00:40	28.7	28.7	28.7	91	26.4	0	0	---	0.00	30.131 
00:45	29.1	29.1	29.1	92	27.1	0	0	---	0.00	30.128 
00:50	29.3	29.3	29.3	92	27.3	0	0	---	0.00	30.128 
00:55	29.4	29.4	29.4	92	27.4	0	0	---	0.00	30.128 
01:00	29.7	29.7	29.7	92	27.7	0	0	---	0.00	30.120 
01:05	29.7	29.7	29.7	92	27.7	0	0	---	0.00	30.120 
01:10	29.7	29.7	29.7	92	27.7	0	0	---	0.00	30.120 
01:15	29.7	29.7	29.7	92	27.7	0	0	---	0.00	30.118 
01:20	29.5	29.5	29.5	92	27.5	0	0	---	0.00	30.118 
01:25	29.4	29.4	29.4	92	27.4	0	0	---	0.00	30.118 
01:30	29.4	29.4	29.4	92	27.4	0	0	---	0.00	30.121 
01:35	29.3	29.3	29.3	92	27.3	0	0	---	0.00	30.121 
01:40	29.4	29.4	29.4	92	27.4	0	0	---	0.00	30.121 
01:45	29.4	29.4	29.4	92	27.4	0	0	---	0.00	30.124 
01:50	29.5	29.5	29.5	93	27.7	0	1	270	0.00	30.124 
01:55	30.0	30.0	30.0	93	28.2	0	0	---	0.00	30.124 
02:00	30.1	30.1	30.1	93	28.3	0	1	270	0.00	30.129 
02:05	30.4	30.4	30.4	93	28.6	0	1	270	0.00	30.129 
02:10	30.7	30.7	30.7	93	28.9	0	1	270	0.00	30.129 
02:15	31.2	31.2	31.2	93	29.4	0	2	270	0.00	30.128 
02:20	31.5	31.5	31.5	93	29.7	0	2	270	0.00	30.128 
02:25	31.6	31.6	31.6	93	29.8	0	1	270	0.00	30.128 
02:30	31.9	31.9	31.9	92	29.8	0	1	270	0.00	30.132 
02:35	32.1	32.1	32.1	92	30.0	0	0	---	0.00	30.132 
02:40	32.2	32.2	32.2	92	30.1	0	1	270	0.00	30.132 
02:45	32.4	32.4	32.4	91	30.1	0	3	270	0.00	30.136 
02:50	32.5	32.5	32.5	91	30.2	0	3	248	0.00	30.136 
02:55	32.8	32.8	32.8	90	30.2	1	2	248	0.00	30.136 
03:00	32.9	32.9	32.9	89	30.0	0	2	248	0.00	30.141 
03:05	33.1	33.1	33.1	88	29.9	0	2	248	0.00	30.141 
03:10	33.4	33.4	33.4	86	29.7	0	3	248	0.00	30.141 
03:15	33.5	33.5	33.5	85	29.5	1	5	248	0.00	30.137 
03:20	33.8	33.8	33.8	83	29.2	1	6	248	0.00	30.137 
03:25	34.1	34.1	34.1	81	28.9	1	5	248	0.00	30.137 
03:30	34.3	34.3	34.3	80	28.8	1	3	248	0.00	30.134 
03:35	34.3	34.3	34.3	79	28.5	1	3	248	0.00	30.134 
03:40	34.3	34.3	34.3	78	28.2	1	3	248	0.00	30.134 
03:45	34.4	34.4	34.4	77	27.9	1	3	248	0.00	30.135 
03:50	34.4	34.4	34.4	77	27.9	1	5	248	0.00	30.135 
03:55	34.6	34.6	34.6	77	28.1	2	6	248	0.00	30.135 
04:00	34.6	34.6	34.6	76	27.8	1	5	248	0.00	30.133 
04:05	34.6	34.6	34.6	76	27.8	1	4	225	0.00	30.133 
04:10	34.6	34.6	34.6	76	27.8	1	3	248	0.00	30.133 
04:15	34.6	34.6	34.6	76	27.8	1	4	270	0.00	30.135 
04:20	34.6	34.6	34.6	75	27.5	1	3	270	0.00	30.135 
04:25	34.4	34.4	34.4	75	27.3	1	3	248	0.00	30.135 
04:30	34.1	34.1	34.1	75	27.0	1	3	248	0.00	30.136 
04:35	34.0	34.0	34.0	75	26.9	1	3	248	0.00	30.136 
04:40	33.7	33.7	33.7	76	27.0	1	3	248	0.00	30.136 
04:45	33.4	33.4	33.4	76	26.7	1	3	248	0.00	30.137 
04:50	33.1	33.1	33.1	77	26.7	0	1	248	0.00	30.137 
04:55	32.9	32.9	32.9	77	26.5	1	2	248	0.00	30.137 
05:00	32.8	32.8	32.8	77	26.4	0	2	248	0.00	30.137 
05:05	32.7	32.7	32.7	77	26.3	1	3	248	0.00	30.137 
05:10	32.5	32.5	32.5	78	26.4	1	3	248	0.00	30.137 
05:15	32.4	32.4	32.4	78	26.3	1	3	248	0.00	30.140 
05:20	32.2	32.2	32.2	78	26.1	0	2	248	0.00	30.140 
05:25	32.1	32.1	32.1	78	26.0	0	2	248	0.00	30.140 
05:30	31.9	31.9	31.9	79	26.1	0	2	248	0.00	30.140 
05:35	31.8	31.8	31.8	79	26.0	1	2	248	0.00	30.140 
05:40	31.6	31.6	31.6	79	25.8	0	2	248	0.00	30.140 
05:45	31.5	31.5	31.5	79	25.8	0	1	248	0.00	30.138 
05:50	31.3	31.3	31.3	79	25.6	0	1	248	0.00	30.138 
05:55	31.0	31.0	31.0	80	25.6	0	1	248	0.00	30.138 
06:00	30.9	30.9	30.9	80	25.5	0	1	248	0.00	30.140 
06:05	30.7	30.7	30.7	80	25.3	0	1	248	0.00	30.140 
06:10	30.6	30.6	30.6	80	25.2	0	1	248	0.00	30.140 
06:15	30.4	30.4	30.4	81	25.3	0	1	248	0.00	30.141 
06:20	30.3	30.3	30.3	81	25.2	0	1	248	0.00	30.141 
06:25	30.3	30.3	30.3	81	25.2	0	1	248	0.00	30.141 
06:30	30.1	30.1	30.1	81	25.0	0	1	248	0.00	30.143 
06:35	30.0	30.0	30.0	81	24.9	0	1	248	0.00	30.143 
06:40	30.0	30.0	30.0	81	24.9	0	0	---	0.00	30.143 
06:45	29.8	29.8	29.8	81	24.7	0	0	---	0.00	30.147 
06:50	29.5	29.5	29.5	81	24.4	0	1	248	0.00	30.147 
06:55	29.4	29.4	29.4	81	24.3	0	0	---	0.00	30.147 
07:00	29.4	29.4	29.4	82	24.6	0	1	248	0.00	30.149 
07:05	29.3	29.3	29.3	82	24.5	0	0	---	0.00	30.149 
07:10	29.3	29.3	29.3	82	24.5	0	1	248	0.00	30.149 
07:15	29.1	29.1	29.1	82	24.3	0	1	248	0.00	30.152 
07:20	29.1	29.1	29.1	82	24.3	0	1	248	0.00	30.152 
07:25	29.1	29.1	29.1	82	24.3	0	1	248	0.00	30.152 
07:30	29.1	29.1	29.1	83	24.6	0	1	248	0.00	30.158 
07:35	29.0	29.0	29.0	83	24.5	0	1	248	0.00	30.158 
07:40	29.0	29.0	29.0	83	24.5	0	1	248	0.00	30.158 
07:45	29.0	29.0	29.0	83	24.5	0	2	248	0.00	30.165 
07:50	29.0	29.0	29.0	83	24.5	0	1	248	0.00	30.165 
07:55	29.1	29.1	29.1	83	24.6	0	1	248	0.00	30.165 
08:00	29.1	29.1	29.1	83	24.6	0	1	248	0.00	30.168 
08:05	29.3	29.3	29.3	83	24.8	0	1	248	0.00	30.168 
08:10	29.3	29.3	29.3	83	24.8	0	1	248	0.00	30.168 
08:15	29.4	29.4	29.4	83	24.9	0	1	248	0.00	30.176 
08:20	29.7	29.7	29.7	83	25.2	0	1	248	0.00	30.176 
08:25	29.8	29.8	29.8	82	25.0	0	2	248	0.00	30.176 
08:30	30.1	30.1	30.1	82	25.3	1	3	270	0.00	30.179 
08:35	30.6	30.6	30.6	81	25.5	1	2	270	0.00	30.179 
08:40	30.7	30.7	30.7	81	25.6	1	2	270	0.00	30.179 
08:45	31.2	31.2	31.2	80	25.8	1	3	270	0.00	30.182 
08:50	31.5	31.5	31.5	79	25.8	1	3	270	0.00	30.182 
08:55	31.8	31.8	31.8	79	26.0	1	2	270	0.00	30.182 
09:00	32.1	32.1	32.1	78	26.0	0	2	270	0.00	30.180 
09:05	32.4	32.4	32.4	77	26.0	1	3	270	0.00	30.180 
09:10	32.7	32.7	32.7	77	26.3	1	2	270	0.00	30.180 
09:15	33.1	33.1	33.1	76	26.4	1	3	270	0.00	30.180 
09:20	33.4	33.4	33.4	75	26.3	1	3	270	0.00	30.180 
09:25	33.7	33.7	33.7	74	26.3	1	2	270	0.00	30.180 
09:30	34.0	34.0	34.0	74	26.6	1	4	270	0.00	30.181 
09:35	34.3	34.3	34.3	73	26.6	1	3	248	0.00	30.181 
09:40	34.6	34.6	34.6	73	26.9	1	3	248	0.00	30.181 
09:45	34.9	34.9	34.9	72	26.8	1	3	248	0.00	30.184 
09:50	35.3	35.3	35.3	72	27.2	1	2	248	0.00	30.184 
09:55	35.6	35.6	35.6	70	26.8	1	4	248	0.00	30.184 
10:00	35.9	35.9	35.9	69	26.7	1	3	248	0.00	30.179 
10:05	36.2	36.2	36.2	70	27.4	1	3	248	0.00	30.179 
10:10	36.5	36.5	36.5	68	27.0	1	3	248	0.00	30.179 
10:15	36.6	36.6	36.6	67	26.7	1	3	248	0.00	30.185 
10:20	36.9	36.9	36.9	66	26.6	1	3	248	0.00	30.185 
10:25	37.3	37.3	37.3	66	27.0	1	3	270	0.00	30.185 
10:30	37.3	37.3	37.3	64	26.3	2	4	270	0.00	30.188 
10:35	37.5	37.5	37.5	63	26.1	1	4	248	0.00	30.188 
10:40	37.8	37.8	37.8	64	26.7	1	3	225	0.00	30.188 
10:45	38.0	38.0	38.0	63	26.5	2	4	225	0.00	30.192 
10:50	38.2	38.2	38.2	61	26.0	1	3	270	0.00	30.192 
10:55	38.5	38.5	38.5	61	26.2	1	3	248	0.00	30.192 
11:00	38.8	38.8	38.8	61	26.5	1	3	248	0.00	30.192 
11:05	38.8	38.8	38.8	58	25.3	1	4	248	0.00	30.192 
11:10	38.9	38.9	38.9	57	25.0	1	3	248	0.00	30.192 
11:15	39.2	39.2	39.2	56	24.8	1	3	270	0.00	30.193 
11:20	39.2	39.2	39.2	55	24.4	2	5	270	0.00	30.193 
11:25	39.3	39.3	39.3	56	24.9	1	4	270	0.00	30.193 
11:30	39.6	39.6	39.6	57	25.6	1	2	270	0.00	30.193 
11:35	39.6	39.6	39.6	54	24.3	1	3	270	0.00	30.193 
11:40	39.8	39.8	39.8	53	24.1	1	4	248	0.00	30.193 
11:45	40.1	40.1	40.1	55	25.2	1	3	315	0.00	30.199 
11:50	40.2	40.2	40.2	53	24.5	1	5	248	0.00	30.199 
11:55	40.2	40.2	40.2	52	24.0	1	3	248	0.00	30.199 
12:00	40.3	40.3	40.3	54	25.0	1	3	248	0.00	30.193 
12:05	40.2	40.2	40.2	51	23.5	2	3	248	0.00	30.193 
12:10	40.2	40.2	40.2	52	24.0	1	4	338	0.00	30.193 
12:15	40.3	40.3	40.3	54	25.0	1	3	270	0.00	30.186 
12:20	40.6	40.6	40.6	54	25.3	1	3	270	0.00	30.186 
12:25	40.6	40.6	40.6	52	24.4	0	2	248	0.00	30.186 
12:30	40.8	40.8	40.8	53	25.0	1	4	315	0.00	30.176 
12:35	41.1	41.1	41.1	53	25.3	1	4	225	0.00	30.176 
12:40	41.1	41.1	41.1	51	24.4	1	3	225	0.00	30.176 
12:45	41.2	41.2	41.2	52	24.9	1	4	248	0.00	30.173 
12:50	41.1	41.1	41.1	50	23.9	0	2	270	0.00	30.173 
12:55	41.2	41.2	41.2	49	23.5	1	3	270	0.00	30.173 
13:00	41.3	41.3	41.3	48	23.1	1	3	292	0.00	30.162 
13:05	41.5	41.5	41.5	50	24.3	0	3	248	0.00	30.162 
13:10	41.9	41.9	41.9	47	23.2	2	4	270	0.00	30.162 
13:15	42.1	42.1	42.1	45	22.3	1	4	270	0.00	30.159 
13:20	42.3	42.3	42.3	46	23.0	1	4	270	0.00	30.159 
13:25	42.3	42.3	42.3	46	23.0	1	4	270	0.00	30.159 
13:30	42.5	42.5	42.5	44	22.1	2	4	248	0.00	30.157 
13:35	42.6	42.6	42.6	46	23.3	1	5	248	0.00	30.157 
13:40	42.8	42.8	42.8	44	22.4	1	3	248	0.00	30.157 
13:45	42.9	42.9	42.9	47	24.1	1	4	338	0.00	30.156 
13:50	42.9	42.9	42.9	46	23.6	2	5	270	0.00	30.156 
13:55	43.1	43.1	43.1	45	23.2	1	4	248	0.00	30.156 
14:00	42.9	42.9	42.9	45	23.0	1	3	315	0.00	30.146 
14:05	43.1	43.1	43.1	44	22.7	2	4	248	0.00	30.146 
14:10	43.2	43.2	43.2	45	23.3	2	4	270	0.00	30.146 
14:15	43.5	43.5	43.5	46	24.1	1	5	270	0.00	30.140 
14:20	43.3	43.3	43.3	43	22.3	2	4	270	0.00	30.140 
14:25	43.5	43.5	43.5	46	24.1	1	3	270	0.00	30.140 
14:30	43.8	43.8	43.8	46	24.4	1	5	270	0.00	30.140 
14:35	43.9	43.9	43.9	44	23.4	1	4	270	0.00	30.140 
14:40	43.9	43.9	43.9	45	23.9	1	4	270	0.00	30.140 
14:45	44.1	44.1	44.1	44	23.6	1	4	270	0.00	30.135 
14:50	44.2	44.2	44.2	45	24.2	1	4	270	0.00	30.135 
14:55	44.2	44.2	44.2	46	24.7	1	3	248	0.00	30.135 
15:00	44.2	44.2	44.2	45	24.2	0	2	248	0.00	30.125 
15:05	44.3	44.3	44.3	46	24.8	1	4	270	0.00	30.125 
15:10	44.3	44.3	44.3	46	24.8	1	2	270	0.00	30.125 
15:15	44.5	44.5	44.5	43	23.4	2	5	270	0.00	30.118 
15:20	44.5	44.5	44.5	43	23.4	1	4	292	0.00	30.118 
15:25	44.6	44.6	44.6	43	23.5	1	3	270	0.00	30.118 
15:30	44.9	44.9	44.9	41	22.6	1	4	270	0.00	30.119 
15:35	45.4	45.4	45.4	43	24.2	1	3	270	0.00	30.119 
15:40	45.8	45.8	45.8	40	22.9	1	3	248	0.00	30.119 
15:45	45.8	45.8	45.8	39	22.3	1	4	248	0.00	30.111 
15:50	45.7	45.7	45.7	38	21.6	1	4	270	0.00	30.111 
15:55	45.5	45.5	45.5	40	22.6	1	4	270	0.00	30.111 
16:00	45.7	45.7	45.7	38	21.6	1	3	248	0.00	30.103 
16:05	45.7	45.7	45.7	40	22.8	1	4	248	0.00	30.103 
16:10	45.5	45.5	45.5	44	24.9	1	3	270	0.00	30.103 
16:15	45.4	45.4	45.4	45	25.3	1	5	248	0.00	30.103 
16:20	45.1	45.1	45.1	44	24.5	2	5	270	0.00	30.103 
16:25	44.9	44.9	44.9	47	25.9	1	4	248	0.00	30.103 
16:30	44.8	44.8	44.8	47	25.8	1	5	248	0.00	30.096 
16:35	44.8	44.8	44.8	47	25.8	1	5	225	0.00	30.096 
16:40	44.5	44.5	44.5	47	25.5	1	6	112	0.00	30.096 
16:45	44.3	44.3	44.3	47	25.4	2	7	248	0.00	30.099 
16:50	44.5	44.5	44.5	47	25.5	2	6	248	0.00	30.099 
16:55	44.5	44.5	44.5	49	26.5	1	4	248	0.00	30.099 
17:00	44.3	44.3	44.3	49	26.4	1	4	248	0.00	30.101 
17:05	43.9	43.9	43.9	51	27.0	1	3	68	0.00	30.101 
17:10	43.9	43.9	43.9	50	26.5	1	5	248	0.00	30.101 
17:15	43.8	43.8	43.8	50	26.4	2	5	248	0.00	30.106 
17:20	43.8	43.8	43.8	49	25.9	2	6	248	0.00	30.106 
17:25	43.6	43.6	43.6	49	25.7	2	4	248	0.00	30.106 
17:30	43.5	43.5	43.5	50	26.1	1	4	248	0.00	30.103 
17:35	43.3	43.3	43.3	51	26.4	0	2	248	0.00	30.103 
17:40	42.9	42.9	42.9	52	26.5	0	1	248	0.00	30.103 
17:45	42.8	42.8	42.8	53	26.9	1	4	248	0.00	30.095 
17:50	42.5	42.5	42.5	54	27.0	0	2	248	0.00	30.095 
17:55	42.2	42.2	42.2	56	27.6	0	3	248	0.00	30.095 
18:00	41.9	41.9	41.9	56	27.4	0	2	248	0.00	30.096 
18:05	41.8	41.8	41.8	56	27.3	1	3	248	0.00	30.096 
18:10	41.8	41.8	41.8	56	27.3	0	3	248	0.00	30.096 
18:15	41.5	41.5	41.5	57	27.4	0	1	248	0.00	30.104 
18:20	41.2	41.2	41.2	58	27.6	0	2	248	0.00	30.104 
18:25	40.9	40.9	40.9	58	27.3	0	1	248	0.00	30.104 
18:30	40.6	40.6	40.6	59	27.4	0	2	248	0.00	30.099 
18:35	40.5	40.5	40.5	60	27.7	0	0	---	0.00	30.099 
18:40	40.2	40.2	40.2	60	27.4	0	0	---	0.00	30.099 
18:45	39.9	39.9	39.9	61	27.6	0	1	248	0.00	30.098 
18:50	39.8	39.8	39.8	61	27.5	0	0	---	0.00	30.098 
18:55	39.6	39.6	39.6	61	27.3	0	0	---	0.00	30.098 
19:00	39.3	39.3	39.3	62	27.4	0	0	---	0.00	30.097 
19:05	39.2	39.2	39.2	62	27.3	0	0	---	0.00	30.097 
19:10	38.8	38.8	38.8	63	27.3	0	0	---	0.00	30.097 
19:15	38.6	38.6	38.6	64	27.5	0	1	248	0.00	30.091 
19:20	38.6	38.6	38.6	64	27.5	0	0	---	0.00	30.091 
19:25	38.5	38.5	38.5	64	27.4	0	0	---	0.00	30.091 
19:30	38.3	38.3	38.3	65	27.6	0	0	---	0.00	30.088 
19:35	38.2	38.2	38.2	65	27.5	0	1	248	0.00	30.088 
19:40	38.2	38.2	38.2	65	27.5	0	1	248	0.00	30.088 
19:45	38.2	38.2	38.2	65	27.5	0	1	248	0.00	30.084 
19:50	38.2	38.2	38.2	65	27.5	0	1	248	0.00	30.084 
19:55	38.0	38.0	38.0	65	27.3	0	1	248	0.00	30.084 
20:00	37.9	37.9	37.9	65	27.2	0	0	---	0.00	30.084 
20:05	37.6	37.6	37.6	66	27.3	0	0	---	0.00	30.084 
20:10	37.5	37.5	37.5	66	27.2	0	0	---	0.00	30.084 
20:15	37.2	37.2	37.2	66	26.9	0	0	---	0.00	30.082 
20:20	37.0	37.0	37.0	67	27.1	0	0	---	0.00	30.082 
20:25	36.6	36.6	36.6	67	26.7	0	0	---	0.00	30.082 
20:30	36.3	36.3	36.3	67	26.4	0	0	---	0.00	30.079 
20:35	36.0	36.0	36.0	68	26.5	0	0	---	0.00	30.079 
20:40	35.9	35.9	35.9	68	26.4	0	0	---	0.00	30.079 
20:45	35.6	35.6	35.6	69	26.4	0	0	---	0.00	30.079 
20:50	35.5	35.5	35.5	69	26.4	0	0	---	0.00	30.079 
20:55	35.3	35.3	35.3	71	26.9	0	0	---	0.00	30.079 
21:00	35.2	35.2	35.2	72	27.1	0	0	---	0.00	30.080 
21:05	35.2	35.2	35.2	72	27.1	0	0	---	0.00	30.080 
21:10	35.2	35.2	35.2	72	27.1	0	0	---	0.00	30.080 
21:15	35.2	35.2	35.2	72	27.1	0	0	---	0.00	30.075 
21:20	35.2	35.2	35.2	73	27.4	0	0	---	0.00	30.075 
21:25	35.6	35.6	35.6	71	27.1	0	2	248	0.00	30.075 
21:30	36.3	36.3	36.3	71	27.8	0	2	248	0.00	30.062 
21:35	36.8	36.8	36.8	70	27.9	0	0	---	0.00	30.062 
21:40	36.9	36.9	36.9	70	28.0	0	0	---	0.00	30.062 
21:45	37.0	37.0	37.0	69	27.8	0	0	---	0.00	30.061 
21:50	37.2	37.2	37.2	69	28.0	0	1	248	0.00	30.061 
21:55	37.5	37.5	37.5	69	28.3	0	1	248	0.00	30.061 
22:00	37.8	37.8	37.8	68	28.2	0	1	248	0.00	30.060 
22:05	37.9	37.9	37.9	67	27.9	0	2	248	0.00	30.060 
22:10	38.2	38.2	38.2	66	27.9	0	2	248	0.00	30.060 
22:15	38.2	38.2	38.2	66	27.9	0	2	248	0.00	30.049 
22:20	38.3	38.3	38.3	66	28.0	0	2	248	0.00	30.049 
22:25	38.2	38.2	38.2	66	27.9	0	1	248	0.00	30.049 
22:30	38.2	38.2	38.2	66	27.9	0	2	248	0.00	30.041 
22:35	38.3	38.3	38.3	65	27.6	1	2	248	0.00	30.041 
22:40	38.6	38.6	38.6	65	27.9	1	3	248	0.00	30.041 
22:45	39.1	39.1	39.1	64	28.0	1	3	248	0.00	30.039 
22:50	39.3	39.3	39.3	63	27.8	1	4	248	0.00	30.039 
22:55	39.5	39.5	39.5	62	27.6	1	5	248	0.00	30.039 
23:00	39.5	39.5	39.5	62	27.6	1	5	248	0.00	30.031 
23:05	39.6	39.6	39.6	62	27.7	1	3	248	0.00	30.031 
23:10	39.6	39.6	39.6	62	27.7	1	5	248	0.00	30.031 
23:15	39.5	39.5	39.5	62	27.6	0	3	248	0.00	30.025 
23:20	39.5	39.5	39.5	62	27.6	1	4	248	0.00	30.025 
23:25	39.3	39.3	39.3	62	27.4	1	3	248	0.00	30.025 
23:30	39.3	39.3	39.3	63	27.8	1	5	248	0.00	30.024 
23:35	39.2	39.2	39.2	63	27.7	1	4	225	0.00	30.024 
23:40	39.1	39.1	39.1	63	27.6	1	3	248	0.00	30.024 
23:45	38.9	38.9	38.9	64	27.8	0	3	248	0.00	30.020 
23:50	38.9	38.9	38.9	64	27.8	1	3	248	0.00	30.020 
23:55	38.8	38.8	38.8	65	28.1	1	3	248	0.00	30.020 

CoCoRaHS
IN-AL-39
A2 Web Hosting
Creative Commons License
GoDaddy
search engine by freefind advanced

loaded 2018-11-17 18:14:12 • last modified 2010-11-18 10:43:29
Privacy PolicyDisclaimer
• wx.awcolley.com is powered by PmWiki v.2002016 •
• all content (unless otherwise noted) © 2018 A W Colley